createdAt,value
2023-03-02T00:02:04.066Z,58.96
2023-03-02T00:04:38.008Z,58.99
2023-03-02T00:07:12.720Z,59.61
2023-03-02T00:09:46.956Z,59.49
2023-03-02T00:12:16.359Z,59.54
2023-03-02T00:14:45.007Z,59.56
2023-03-02T00:17:13.543Z,59.55
2023-03-02T00:19:42.352Z,59.87
2023-03-02T00:22:11.261Z,60.05
2023-03-02T00:24:39.757Z,59.69
2023-03-02T00:27:08.140Z,59.63
2023-03-02T00:29:36.681Z,59.59
2023-03-02T00:32:06.822Z,59.59
2023-03-02T00:34:35.582Z,59.84
2023-03-02T00:37:06.824Z,59.76
2023-03-02T00:39:35.744Z,59.78
2023-03-02T00:42:03.876Z,59.83
2023-03-02T00:44:32.584Z,59.57
2023-03-02T00:47:01.118Z,60.11
2023-03-02T00:49:32.717Z,60.11
2023-03-02T00:52:01.292Z,60.19
2023-03-02T00:54:29.789Z,60.05
2023-03-02T00:56:58.766Z,60.19
2023-03-02T00:59:27.130Z,60.02
2023-03-02T01:01:59.042Z,60.17
2023-03-02T01:04:40.823Z,59.95
2023-03-02T01:07:18.468Z,60.30
2023-03-02T01:09:48.972Z,60.05
2023-03-02T01:12:17.470Z,60.28
2023-03-02T01:14:48.734Z,60.58
2023-03-02T01:17:17.170Z,60.28
2023-03-02T01:19:45.590Z,60.23
2023-03-02T01:22:14.441Z,60.29
2023-03-02T01:24:42.858Z,60.44
2023-03-02T01:27:14.077Z,60.72
2023-03-02T01:29:42.543Z,60.63
2023-03-02T01:32:11.214Z,60.52
2023-03-02T01:34:40.010Z,60.41
2023-03-02T01:37:08.598Z,60.81
2023-03-02T01:39:37.024Z,61.10
2023-03-02T01:42:05.727Z,61.04
2023-03-02T01:44:41.401Z,61.01
2023-03-02T01:47:19.021Z,61.10
2023-03-02T01:50:03.683Z,61.24
2023-03-02T01:52:35.401Z,61.36
2023-03-02T01:55:08.749Z,61.20
2023-03-02T01:57:44.001Z,61.23
2023-03-02T02:00:20.887Z,61.31
2023-03-02T02:02:52.844Z,61.58
2023-03-02T02:05:26.389Z,61.54
2023-03-02T02:07:55.027Z,61.63
2023-03-02T02:10:23.708Z,61.68
2023-03-02T02:12:52.211Z,61.17
2023-03-02T02:15:20.724Z,61.35
2023-03-02T02:17:49.246Z,61.26
2023-03-02T02:20:24.388Z,61.47
2023-03-02T02:23:19.671Z,61.29
2023-03-02T02:25:53.916Z,61.66
2023-03-02T02:28:30.783Z,61.94
2023-03-02T02:31:34.381Z,61.50
2023-03-02T02:34:12.564Z,62.03
2023-03-02T02:36:45.416Z,62.13
2023-03-02T02:39:22.338Z,62.11
2023-03-02T02:41:55.601Z,62.01
2023-03-02T02:44:24.074Z,61.88
2023-03-02T02:46:52.551Z,62.22
2023-03-02T02:49:31.881Z,62.39
2023-03-02T02:52:00.876Z,62.09
2023-03-02T02:54:31.354Z,61.97
2023-03-02T02:57:03.465Z,61.53
2023-03-02T02:59:44.000Z,61.85
2023-03-02T03:02:22.494Z,61.99
2023-03-02T03:04:51.681Z,62.15
2023-03-02T03:07:25.336Z,61.96
2023-03-02T03:10:04.728Z,62.07
2023-03-02T03:12:34.880Z,61.66
2023-03-02T03:15:04.167Z,61.69
2023-03-02T03:17:32.586Z,61.32
2023-03-02T03:20:11.068Z,61.10
2023-03-02T03:22:39.890Z,61.45
2023-03-02T03:25:08.705Z,61.61
2023-03-02T03:27:37.040Z,61.33
2023-03-02T03:30:06.380Z,61.25
2023-03-02T03:32:35.722Z,61.10
2023-03-02T03:35:09.722Z,61.20
2023-03-02T03:37:40.664Z,61.30
2023-03-02T03:40:11.191Z,61.24
2023-03-02T03:42:39.935Z,61.31
2023-03-02T03:45:09.141Z,61.07
2023-03-02T03:47:37.609Z,60.86
2023-03-02T03:50:06.230Z,60.83
2023-03-02T03:52:35.050Z,60.85
2023-03-02T03:55:03.640Z,60.78
2023-03-02T03:57:32.242Z,60.67
2023-03-02T04:00:00.495Z,60.59
2023-03-02T04:02:30.289Z,60.28
2023-03-02T04:05:09.031Z,60.37
2023-03-02T04:07:43.629Z,60.12
2023-03-02T04:10:12.794Z,59.55
2023-03-02T04:12:42.115Z,59.18
2023-03-02T04:15:16.256Z,59.11
2023-03-02T04:17:45.196Z,58.92
2023-03-02T04:20:17.973Z,58.77
2023-03-02T04:22:48.777Z,58.17
2023-03-02T04:25:20.674Z,57.87
2023-03-02T04:27:51.285Z,57.84
2023-03-02T04:30:23.648Z,57.94
2023-03-02T04:32:52.444Z,57.80
2023-03-02T04:35:20.699Z,57.85
2023-03-02T04:37:48.792Z,57.54
2023-03-02T04:40:17.862Z,57.74
2023-03-02T04:42:46.432Z,57.63
2023-03-02T04:45:15.698Z,57.52
2023-03-02T04:47:44.159Z,57.50
2023-03-02T04:50:14.691Z,57.28
2023-03-02T04:52:43.502Z,57.18
2023-03-02T04:55:19.883Z,57.14
2023-03-02T04:57:48.565Z,57.13
2023-03-02T05:00:19.416Z,57.47
2023-03-02T05:02:48.395Z,56.78
2023-03-02T05:05:24.823Z,56.68
2023-03-02T05:08:00.253Z,56.71
2023-03-02T05:10:29.239Z,56.55
2023-03-02T05:13:05.297Z,56.33
2023-03-02T05:15:39.210Z,56.13
2023-03-02T05:18:10.320Z,56.62
2023-03-02T05:20:39.787Z,56.14
2023-03-02T05:23:10.202Z,56.09
2023-03-02T05:25:39.079Z,56.12
2023-03-02T05:28:07.645Z,56.14
2023-03-02T05:30:38.163Z,56.19
2023-03-02T05:33:06.975Z,56.19
2023-03-02T05:35:39.328Z,56.25
2023-03-02T05:38:08.790Z,56.35
2023-03-02T05:40:37.159Z,55.96
2023-03-02T05:43:08.765Z,56.07
2023-03-02T05:45:38.904Z,56.16
2023-03-02T05:48:07.982Z,55.90
2023-03-02T05:50:39.530Z,56.04
2023-03-02T05:53:08.304Z,56.28
2023-03-02T05:55:37.385Z,56.18
2023-03-02T05:58:13.659Z,56.26
2023-03-02T06:00:42.733Z,56.63
2023-03-02T06:03:11.130Z,56.39
2023-03-02T06:05:42.746Z,56.45
2023-03-02T06:08:11.174Z,56.36
2023-03-02T06:10:39.497Z,56.36
2023-03-02T06:13:09.317Z,56.20
2023-03-02T06:15:40.028Z,56.20
2023-03-02T06:18:08.251Z,55.98
2023-03-02T06:20:36.897Z,55.92
2023-03-02T06:23:05.833Z,56.01
2023-03-02T06:25:36.171Z,56.06
2023-03-02T06:28:04.661Z,56.05
2023-03-02T06:30:33.063Z,55.81
2023-03-02T06:33:01.891Z,55.78
2023-03-02T06:35:30.496Z,55.97
2023-03-02T06:38:01.001Z,55.75
2023-03-02T06:40:30.644Z,55.65
2023-03-02T06:43:02.099Z,55.66
2023-03-02T06:45:35.386Z,55.26
2023-03-02T06:48:04.931Z,55.20
2023-03-02T06:50:34.754Z,54.87
2023-03-02T06:53:03.071Z,55.23
2023-03-02T06:55:31.622Z,55.00
2023-03-02T06:58:02.935Z,55.06
2023-03-02T07:00:31.211Z,55.11
2023-03-02T07:02:59.542Z,54.67
2023-03-02T07:05:28.300Z,54.88
2023-03-02T07:07:57.211Z,54.68
2023-03-02T07:10:26.407Z,54.90
2023-03-02T07:12:55.206Z,54.70
2023-03-02T07:15:23.809Z,54.47
2023-03-02T07:17:54.900Z,54.12
2023-03-02T07:20:23.268Z,54.28
2023-03-02T07:22:54.765Z,54.41
2023-03-02T07:25:23.217Z,54.17
2023-03-02T07:27:53.446Z,54.38
2023-03-02T07:30:22.215Z,54.70
2023-03-02T07:32:51.102Z,55.71
2023-03-02T07:35:19.469Z,56.02
2023-03-02T07:37:51.018Z,56.02
2023-03-02T07:40:19.700Z,56.04
2023-03-02T07:42:51.627Z,55.99
2023-03-02T07:45:25.244Z,55.57
2023-03-02T07:47:55.614Z,55.58
2023-03-02T07:50:24.187Z,55.18
2023-03-02T07:52:52.492Z,54.66
2023-03-02T07:55:20.410Z,54.30
2023-03-02T07:57:48.842Z,54.11
2023-03-02T08:00:17.584Z,53.94
2023-03-02T08:02:48.391Z,54.00
2023-03-02T08:05:17.207Z,54.08
2023-03-02T08:07:47.917Z,53.86
2023-03-02T08:10:19.148Z,53.81
2023-03-02T08:12:47.398Z,53.27
2023-03-02T08:15:15.938Z,52.41
2023-03-02T08:17:47.120Z,51.69
2023-03-02T08:20:16.147Z,51.71
2023-03-02T08:22:44.521Z,51.70
2023-03-02T08:25:13.038Z,51.66
2023-03-02T08:27:41.603Z,51.88
2023-03-02T08:30:11.292Z,52.08
2023-03-02T08:32:40.719Z,52.24
2023-03-02T08:35:09.722Z,51.96
2023-03-02T08:37:38.351Z,51.44
2023-03-02T08:40:11.935Z,51.57
2023-03-02T08:42:43.757Z,51.46
2023-03-02T08:45:12.948Z,51.44
2023-03-02T08:47:41.241Z,51.14
2023-03-02T08:50:10.194Z,51.30
2023-03-02T08:52:39.170Z,51.31
2023-03-02T08:55:08.733Z,51.76
2023-03-02T08:57:37.394Z,52.26
2023-03-02T09:00:09.387Z,51.97
2023-03-02T09:02:41.687Z,51.67
2023-03-02T09:05:10.816Z,51.45
2023-03-02T09:07:39.484Z,51.34
2023-03-02T09:10:07.791Z,50.98
2023-03-02T09:12:35.903Z,51.13
2023-03-02T09:15:04.468Z,50.64
2023-03-02T09:17:32.727Z,50.69
2023-03-02T09:20:00.928Z,50.77
2023-03-02T09:22:36.281Z,50.84
2023-03-02T09:25:06.197Z,50.86
2023-03-02T09:27:34.505Z,51.07
2023-03-02T09:30:04.928Z,51.18
2023-03-02T09:32:33.999Z,51.21
2023-03-02T09:35:02.674Z,51.63
2023-03-02T09:37:30.966Z,51.36
2023-03-02T09:39:59.767Z,51.16
2023-03-02T09:43:00.738Z,50.79
2023-03-02T09:45:35.506Z,50.32
2023-03-02T09:48:35.195Z,50.08
2023-03-02T09:51:39.682Z,49.68
2023-03-02T09:54:14.267Z,49.54
2023-03-02T09:56:49.966Z,49.08
2023-03-02T09:59:25.229Z,48.41
2023-03-02T10:02:18.427Z,48.88
2023-03-02T10:04:53.639Z,48.84
2023-03-02T10:07:35.728Z,48.39
2023-03-02T10:10:33.375Z,48.47
2023-03-02T10:13:36.475Z,48.36
2023-03-02T10:16:26.466Z,48.18
2023-03-02T10:19:25.434Z,47.87
2023-03-02T10:22:27.942Z,47.11
2023-03-02T10:25:42.104Z,46.85
2023-03-02T10:28:20.990Z,46.68
2023-03-02T10:31:09.984Z,46.13
2023-03-02T10:33:40.812Z,45.39
2023-03-02T10:36:39.894Z,45.57
2023-03-02T10:39:14.098Z,45.97
2023-03-02T10:41:56.539Z,45.51
2023-03-02T10:44:37.807Z,44.63
2023-03-02T10:47:08.668Z,44.45
2023-03-02T10:49:42.543Z,43.76
2023-03-02T10:52:16.683Z,43.76
2023-03-02T10:54:45.463Z,43.45
2023-03-02T10:57:38.461Z,42.74
2023-03-02T11:00:18.223Z,42.94
2023-03-02T11:02:54.370Z,42.29
2023-03-02T11:05:37.118Z,41.88
2023-03-02T11:08:09.651Z,41.76
2023-03-02T11:10:51.986Z,41.55
2023-03-02T11:13:29.372Z,40.98
2023-03-02T11:16:22.783Z,40.03
2023-03-02T11:19:18.500Z,39.55
2023-03-02T11:22:31.619Z,39.53
2023-03-02T11:25:05.697Z,39.46
2023-03-02T11:27:37.174Z,39.10
2023-03-02T11:30:19.809Z,38.51
2023-03-02T11:33:29.678Z,38.61
2023-03-02T11:36:11.505Z,38.77
2023-03-02T11:38:53.702Z,37.41
2023-03-02T11:41:31.727Z,34.46
2023-03-02T11:44:07.120Z,30.90
2023-03-02T11:46:36.192Z,28.78
2023-03-02T11:49:17.785Z,26.29
2023-03-02T11:51:58.782Z,23.90
2023-03-02T11:54:39.589Z,21.89
2023-03-02T11:57:19.856Z,19.67
2023-03-02T11:59:49.399Z,18.24
2023-03-02T12:02:21.207Z,16.72
2023-03-02T12:04:50.188Z,15.72
2023-03-02T12:07:26.003Z,14.64
2023-03-02T12:10:04.737Z,14.26
2023-03-02T12:12:44.421Z,13.39
2023-03-02T12:15:52.440Z,12.67
2023-03-02T12:18:23.321Z,12.50
2023-03-02T12:21:02.474Z,12.30
2023-03-02T12:23:33.441Z,12.35
2023-03-02T12:26:22.225Z,12.17
2023-03-02T12:29:21.952Z,11.90
2023-03-02T12:31:55.608Z,11.72
2023-03-02T12:34:35.850Z,11.64
2023-03-02T12:37:18.917Z,11.72
2023-03-02T12:40:19.326Z,11.57
2023-03-02T12:42:53.535Z,11.47
2023-03-02T12:45:51.486Z,11.14
2023-03-02T12:48:29.815Z,10.77
2023-03-02T12:51:03.555Z,10.54
2023-03-02T12:53:32.605Z,10.21
2023-03-02T12:56:00.943Z,10.15
2023-03-02T12:58:29.874Z,10.03
2023-03-02T13:01:14.651Z,9.77
2023-03-02T13:03:49.285Z,9.50
2023-03-02T13:06:20.657Z,9.25
2023-03-02T13:08:53.085Z,8.99
2023-03-02T13:11:35.886Z,8.75
2023-03-02T13:14:22.466Z,8.62
2023-03-02T13:17:00.226Z,8.43
2023-03-02T13:19:32.139Z,8.32
2023-03-02T13:22:01.042Z,8.18
2023-03-02T13:24:52.698Z,8.40
2023-03-02T13:27:23.939Z,8.26
2023-03-02T13:29:53.208Z,7.78
2023-03-02T13:32:28.820Z,7.66
2023-03-02T13:35:02.580Z,7.70
2023-03-02T13:37:37.850Z,7.83
2023-03-02T13:40:31.510Z,8.57
2023-03-02T13:43:03.228Z,8.46
2023-03-02T13:45:33.118Z,8.36
2023-03-02T13:48:15.655Z,8.51
2023-03-02T13:50:53.888Z,8.75
2023-03-02T13:53:24.631Z,9.19
2023-03-02T13:55:57.079Z,9.73
2023-03-02T13:58:30.171Z,10.36
2023-03-02T14:00:58.755Z,10.91
2023-03-02T14:03:30.742Z,10.48
2023-03-02T14:06:05.724Z,10.55
2023-03-02T14:08:36.359Z,10.28
2023-03-02T14:11:38.438Z,10.07
2023-03-02T14:14:08.575Z,10.11
2023-03-02T14:16:40.191Z,10.52
2023-03-02T14:19:13.825Z,11.66
2023-03-02T14:21:43.653Z,11.86
2023-03-02T14:24:15.304Z,12.31
2023-03-02T14:26:47.497Z,12.90
2023-03-02T14:29:21.916Z,13.48
2023-03-02T14:31:50.682Z,14.37
2023-03-02T14:34:19.128Z,14.27
2023-03-02T14:36:51.480Z,14.26
2023-03-02T14:39:24.844Z,14.54
2023-03-02T14:41:54.749Z,13.76
2023-03-02T14:44:23.570Z,13.22
2023-03-02T14:46:53.303Z,13.27
2023-03-02T14:49:22.072Z,12.98
2023-03-02T14:52:05.253Z,12.96
2023-03-02T14:54:56.960Z,12.97
2023-03-02T14:57:27.200Z,12.44
2023-03-02T15:00:03.165Z,12.30
2023-03-02T15:02:32.059Z,12.21
2023-03-02T15:05:00.456Z,12.25
2023-03-02T15:07:30.181Z,12.14
2023-03-02T15:09:59.200Z,12.33
2023-03-02T15:12:27.614Z,12.37
2023-03-02T15:14:59.948Z,12.44
2023-03-02T15:17:31.386Z,12.67
2023-03-02T15:20:00.255Z,12.72
2023-03-02T15:22:28.512Z,13.11
2023-03-02T15:24:56.814Z,14.48
2023-03-02T15:27:26.418Z,16.70
2023-03-02T15:29:57.548Z,18.24
2023-03-02T15:32:27.139Z,19.64
2023-03-02T15:34:55.692Z,20.97
2023-03-02T15:37:24.115Z,22.10
2023-03-02T15:39:57.072Z,23.22
2023-03-02T15:42:25.376Z,24.37
2023-03-02T15:44:53.398Z,25.31
2023-03-02T15:47:21.702Z,26.14
2023-03-02T15:49:49.948Z,26.91
2023-03-02T15:52:20.679Z,27.77
2023-03-02T15:54:49.876Z,28.35
2023-03-02T15:57:18.097Z,29.15
2023-03-02T15:59:46.593Z,29.84
2023-03-02T16:02:15.673Z,30.12
2023-03-02T16:04:46.877Z,30.88
2023-03-02T16:07:17.931Z,31.24
2023-03-02T16:09:46.550Z,31.77
2023-03-02T16:12:18.148Z,32.00
2023-03-02T16:14:46.632Z,32.38
2023-03-02T16:17:15.175Z,32.79
2023-03-02T16:19:46.495Z,33.12
2023-03-02T16:22:15.173Z,33.47
2023-03-02T16:24:43.678Z,33.80
2023-03-02T16:27:11.998Z,34.07
2023-03-02T16:29:40.599Z,34.43
2023-03-02T16:32:09.359Z,34.72
2023-03-02T16:34:38.140Z,34.91
2023-03-02T16:37:06.467Z,35.26
2023-03-02T16:39:34.770Z,35.72
2023-03-02T16:42:04.177Z,36.24
2023-03-02T16:44:32.621Z,36.55
2023-03-02T16:47:01.320Z,37.15
2023-03-02T16:49:29.976Z,37.79
2023-03-02T16:52:01.186Z,38.19
2023-03-02T16:54:29.579Z,38.74
2023-03-02T16:56:59.987Z,39.76
2023-03-02T16:59:28.551Z,40.14
2023-03-02T17:02:00.001Z,41.25
2023-03-02T17:04:36.151Z,42.10
2023-03-02T17:07:06.490Z,42.49
2023-03-02T17:09:37.296Z,42.88
2023-03-02T17:12:06.107Z,42.87
2023-03-02T17:14:34.695Z,43.55
2023-03-02T17:17:03.280Z,43.61
2023-03-02T17:19:31.447Z,44.50
2023-03-02T17:22:01.835Z,44.74
2023-03-02T17:24:31.856Z,44.81
2023-03-02T17:27:00.601Z,45.31
2023-03-02T17:29:28.810Z,45.87
2023-03-02T17:31:57.519Z,46.15
2023-03-02T17:34:30.919Z,46.65
2023-03-02T17:37:01.750Z,46.43
2023-03-02T17:39:30.144Z,46.46
2023-03-02T17:41:58.474Z,46.56
2023-03-02T17:44:27.777Z,46.82
2023-03-02T17:46:57.355Z,47.39
2023-03-02T17:49:26.031Z,47.88
2023-03-02T17:51:54.239Z,48.23
2023-03-02T17:54:25.117Z,49.33
2023-03-02T17:56:53.729Z,49.14
2023-03-02T17:59:23.668Z,49.61
2023-03-02T18:01:55.181Z,50.33
2023-03-02T18:04:23.791Z,50.23
2023-03-02T18:06:54.089Z,51.50
2023-03-02T18:09:22.858Z,51.37
2023-03-02T18:11:54.584Z,51.48
2023-03-02T18:14:24.424Z,52.03
2023-03-02T18:16:55.867Z,52.16
2023-03-02T18:19:24.861Z,52.68
2023-03-02T18:21:53.878Z,53.38
2023-03-02T18:24:27.564Z,53.55
2023-03-02T18:26:56.705Z,54.43
2023-03-02T18:29:25.442Z,53.73
2023-03-02T18:31:54.045Z,54.04
2023-03-02T18:34:22.512Z,54.47
2023-03-02T18:36:50.664Z,53.51
2023-03-02T18:39:23.160Z,54.91
2023-03-02T18:41:55.131Z,54.82
2023-03-02T18:44:28.248Z,55.31
2023-03-02T18:46:56.532Z,55.16
2023-03-02T18:49:25.447Z,54.97
2023-03-02T18:51:56.073Z,54.85
2023-03-02T18:54:25.528Z,54.70
2023-03-02T18:56:55.633Z,54.80
2023-03-02T18:59:23.788Z,54.50
2023-03-02T19:01:52.019Z,55.01
2023-03-02T19:04:28.162Z,55.39
2023-03-02T19:06:57.582Z,54.83
2023-03-02T19:09:26.335Z,54.95
2023-03-02T19:11:54.481Z,54.36
2023-03-02T19:14:24.373Z,54.47
2023-03-02T19:16:55.652Z,54.71
2023-03-02T19:19:24.014Z,54.39
2023-03-02T19:21:52.630Z,54.92
2023-03-02T19:24:20.997Z,54.53
2023-03-02T19:26:50.688Z,54.48
2023-03-02T19:29:19.298Z,54.25
2023-03-02T19:31:47.850Z,55.07
2023-03-02T19:34:16.277Z,55.14
2023-03-02T19:36:44.692Z,55.06
2023-03-02T19:39:16.067Z,55.77
2023-03-02T19:41:47.809Z,55.90
2023-03-02T19:44:17.484Z,55.79
2023-03-02T19:46:45.941Z,56.05
2023-03-02T19:49:14.441Z,56.32
2023-03-02T19:51:42.730Z,57.23
2023-03-02T19:54:11.414Z,56.75
2023-03-02T19:56:43.406Z,56.97
2023-03-02T19:59:11.832Z,56.87
2023-03-02T20:01:40.073Z,56.70
2023-03-02T20:04:08.683Z,56.44
2023-03-02T20:06:39.042Z,55.78
2023-03-02T20:09:13.439Z,56.47
2023-03-02T20:11:41.686Z,56.34
2023-03-02T20:14:10.132Z,56.68
2023-03-02T20:16:39.483Z,57.02
2023-03-02T20:19:09.436Z,56.71
2023-03-02T20:21:38.778Z,56.96
2023-03-02T20:24:08.488Z,57.35
2023-03-02T20:26:37.233Z,57.22
2023-03-02T20:29:05.989Z,57.12
2023-03-02T20:31:35.614Z,57.83
2023-03-02T20:34:08.644Z,57.14
2023-03-02T20:36:41.374Z,57.06
2023-03-02T20:39:23.806Z,57.14
2023-03-02T20:41:52.542Z,57.00
2023-03-02T20:44:22.674Z,56.37
2023-03-02T20:46:57.655Z,56.35
2023-03-02T20:49:28.729Z,55.81
2023-03-02T20:52:00.613Z,55.98
2023-03-02T20:54:35.527Z,56.25
2023-03-02T20:57:05.635Z,56.11
2023-03-02T20:59:34.637Z,56.48
2023-03-02T21:02:02.979Z,56.39
2023-03-02T21:04:31.450Z,56.40
2023-03-02T21:07:00.120Z,56.56
2023-03-02T21:09:31.595Z,56.41
2023-03-02T21:12:00.977Z,56.65
2023-03-02T21:14:30.783Z,56.32
2023-03-02T21:17:01.020Z,56.45
2023-03-02T21:19:32.836Z,55.67
2023-03-02T21:22:01.458Z,56.18
2023-03-02T21:24:30.330Z,56.01
2023-03-02T21:27:00.620Z,55.58
2023-03-02T21:29:29.422Z,55.66
2023-03-02T21:31:58.446Z,56.55
2023-03-02T21:34:26.810Z,56.77
2023-03-02T21:36:58.119Z,56.65
2023-03-02T21:39:27.385Z,56.81
2023-03-02T21:41:56.332Z,57.00
2023-03-02T21:44:25.112Z,57.13
2023-03-02T21:46:53.708Z,57.33
2023-03-02T21:49:23.447Z,57.04
2023-03-02T21:51:52.450Z,57.11
2023-03-02T21:54:26.075Z,56.41
2023-03-02T21:56:54.498Z,56.64
2023-03-02T21:59:23.134Z,57.17
2023-03-02T22:01:52.499Z,56.89
2023-03-02T22:04:24.064Z,56.70
2023-03-02T22:06:55.385Z,58.06
2023-03-02T22:09:24.439Z,57.67
2023-03-02T22:11:54.959Z,57.65
2023-03-02T22:14:29.540Z,57.77
2023-03-02T22:16:58.695Z,57.95
2023-03-02T22:19:32.360Z,57.31
2023-03-02T22:22:03.417Z,57.44
2023-03-02T22:24:36.300Z,57.30
2023-03-02T22:27:25.609Z,57.36
2023-03-02T22:29:58.048Z,57.13
2023-03-02T22:32:37.105Z,57.10
2023-03-02T22:35:29.877Z,57.39
2023-03-02T22:38:09.610Z,57.78
2023-03-02T22:40:37.857Z,58.07
2023-03-02T22:43:29.703Z,57.95
2023-03-02T22:46:17.701Z,58.49
2023-03-02T22:48:53.290Z,58.51
2023-03-02T22:51:30.781Z,58.54
2023-03-02T22:54:01.025Z,58.80
2023-03-02T22:56:37.585Z,58.94
2023-03-02T22:59:23.016Z,58.66
2023-03-02T23:02:02.368Z,58.27
2023-03-02T23:04:35.679Z,58.06
2023-03-02T23:07:24.390Z,57.87
2023-03-02T23:09:53.086Z,58.43
2023-03-02T23:12:30.023Z,58.15
2023-03-02T23:15:00.060Z,59.16
2023-03-02T23:17:39.478Z,58.60
2023-03-02T23:20:12.074Z,58.31
2023-03-02T23:22:40.892Z,58.39
2023-03-02T23:25:09.509Z,58.05
2023-03-02T23:27:37.832Z,57.97
2023-03-02T23:30:06.638Z,57.78
2023-03-02T23:32:35.504Z,58.26
2023-03-02T23:35:04.300Z,58.27
2023-03-02T23:37:33.384Z,58.00
2023-03-02T23:40:01.576Z,57.68
2023-03-02T23:42:29.908Z,57.62
2023-03-02T23:44:58.276Z,57.38
2023-03-02T23:47:26.464Z,57.66
2023-03-02T23:49:54.774Z,58.18
2023-03-02T23:52:22.867Z,58.27
2023-03-02T23:54:51.691Z,58.62
2023-03-02T23:57:20.562Z,59.53
2023-03-02T23:59:49.100Z,59.34
